sensor_id;sensor_type;location;lat;lon;timestamp;temperature;humidity
22682;DHT22;11508;50.856;4.380;2023-07-31T00:00:49;17.30;99.90
22682;DHT22;11508;50.856;4.380;2023-07-31T00:03:15;17.30;99.90
22682;DHT22;11508;50.856;4.380;2023-07-31T00:05:40;17.40;99.90
22682;DHT22;11508;50.856;4.380;2023-07-31T00:08:06;17.60;99.90
22682;DHT22;11508;50.856;4.380;2023-07-31T00:10:32;17.40;99.90
22682;DHT22;11508;50.856;4.380;2023-07-31T00:12:58;17.40;99.90
22682;DHT22;11508;50.856;4.380;2023-07-31T00:15:24;17.40;99.90
22682;DHT22;11508;50.856;4.380;2023-07-31T00:17:51;17.40;99.90
22682;DHT22;11508;50.856;4.380;2023-07-31T00:20:17;17.50;99.90
22682;DHT22;11508;50.856;4.380;2023-07-31T00:22:42;17.50;99.90
22682;DHT22;11508;50.856;4.380;2023-07-31T00:25:08;17.50;99.90
22682;DHT22;11508;50.856;4.380;2023-07-31T00:27:34;17.50;99.90
22682;DHT22;11508;50.856;4.380;2023-07-31T00:29:59;17.40;99.90
22682;DHT22;11508;50.856;4.380;2023-07-31T00:32:25;17.30;99.90
22682;DHT22;11508;50.856;4.380;2023-07-31T00:34:51;17.30;99.90
22682;DHT22;11508;50.856;4.380;2023-07-31T00:37:16;17.30;99.90
22682;DHT22;11508;50.856;4.380;2023-07-31T00:39:42;17.40;99.90
22682;DHT22;11508;50.856;4.380;2023-07-31T00:42:08;17.40;99.90
22682;DHT22;11508;50.856;4.380;2023-07-31T00:44:33;17.40;99.90
22682;DHT22;11508;50.856;4.380;2023-07-31T00:46:59;17.40;99.90
22682;DHT22;11508;50.856;4.380;2023-07-31T00:49:26;17.40;99.90
22682;DHT22;11508;50.856;4.380;2023-07-31T00:51:52;17.50;99.90
22682;DHT22;11508;50.856;4.380;2023-07-31T00:54:18;17.40;99.90
22682;DHT22;11508;50.856;4.380;2023-07-31T00:56:45;17.40;99.90
22682;DHT22;11508;50.856;4.380;2023-07-31T00:59:13;17.40;99.90
22682;DHT22;11508;50.856;4.380;2023-07-31T01:01:40;17.40;99.90
22682;DHT22;11508;50.856;4.380;2023-07-31T01:04:06;17.40;99.90
22682;DHT22;11508;50.856;4.380;2023-07-31T01:09:08;17.50;99.90
22682;DHT22;11508;50.856;4.380;2023-07-31T01:11:48;17.50;99.90
22682;DHT22;11508;50.856;4.380;2023-07-31T01:14:15;17.50;99.90
22682;DHT22;11508;50.856;4.380;2023-07-31T01:16:41;17.40;99.90
22682;DHT22;11508;50.856;4.380;2023-07-31T01:19:09;17.50;99.90
22682;DHT22;11508;50.856;4.380;2023-07-31T01:27:08;17.40;99.90
22682;DHT22;11508;50.856;4.380;2023-07-31T01:32:38;17.40;99.90
22682;DHT22;11508;50.856;4.380;2023-07-31T01:35:06;17.40;99.90
22682;DHT22;11508;50.856;4.380;2023-07-31T01:37:31;17.40;99.90
22682;DHT22;11508;50.856;4.380;2023-07-31T01:39:57;17.50;99.90
22682;DHT22;11508;50.856;4.380;2023-07-31T01:42:23;17.50;99.90
22682;DHT22;11508;50.856;4.380;2023-07-31T01:44:49;17.50;99.90
22682;DHT22;11508;50.856;4.380;2023-07-31T01:47:14;17.50;99.90
22682;DHT22;11508;50.856;4.380;2023-07-31T01:49:40;17.40;99.90
22682;DHT22;11508;50.856;4.380;2023-07-31T01:52:06;17.40;99.90
22682;DHT22;11508;50.856;4.380;2023-07-31T01:54:31;17.30;99.90
22682;DHT22;11508;50.856;4.380;2023-07-31T01:56:58;17.30;99.90
22682;DHT22;11508;50.856;4.380;2023-07-31T01:59:23;17.40;99.90
22682;DHT22;11508;50.856;4.380;2023-07-31T02:01:49;17.40;99.90
22682;DHT22;11508;50.856;4.380;2023-07-31T02:04:15;17.40;99.90
22682;DHT22;11508;50.856;4.380;2023-07-31T02:06:40;17.30;99.90
22682;DHT22;11508;50.856;4.380;2023-07-31T02:09:06;17.30;99.90
22682;DHT22;11508;50.856;4.380;2023-07-31T02:11:32;17.30;99.90
22682;DHT22;11508;50.856;4.380;2023-07-31T02:13:57;17.30;99.90
22682;DHT22;11508;50.856;4.380;2023-07-31T02:16:23;17.30;99.90
22682;DHT22;11508;50.856;4.380;2023-07-31T02:18:49;17.30;99.90
22682;DHT22;11508;50.856;4.380;2023-07-31T02:21:14;17.30;99.90
22682;DHT22;11508;50.856;4.380;2023-07-31T02:23:40;17.40;99.90
22682;DHT22;11508;50.856;4.380;2023-07-31T02:26:05;17.40;99.90
22682;DHT22;11508;50.856;4.380;2023-07-31T02:28:31;17.40;99.90
22682;DHT22;11508;50.856;4.380;2023-07-31T02:30:57;17.30;99.90
22682;DHT22;11508;50.856;4.380;2023-07-31T02:33:23;17.40;99.90
22682;DHT22;11508;50.856;4.380;2023-07-31T02:35:50;17.40;99.90
22682;DHT22;11508;50.856;4.380;2023-07-31T02:38:15;17.40;99.90
22682;DHT22;11508;50.856;4.380;2023-07-31T02:40:41;17.40;99.90
22682;DHT22;11508;50.856;4.380;2023-07-31T02:43:07;17.40;99.90
22682;DHT22;11508;50.856;4.380;2023-07-31T02:45:33;17.40;99.90
22682;DHT22;11508;50.856;4.380;2023-07-31T02:47:59;17.40;99.90
22682;DHT22;11508;50.856;4.380;2023-07-31T02:50:24;17.40;99.90
22682;DHT22;11508;50.856;4.380;2023-07-31T02:52:50;17.40;99.90
22682;DHT22;11508;50.856;4.380;2023-07-31T02:55:16;17.40;99.90
22682;DHT22;11508;50.856;4.380;2023-07-31T02:57:41;17.40;99.90
22682;DHT22;11508;50.856;4.380;2023-07-31T03:00:07;17.40;99.90
22682;DHT22;11508;50.856;4.380;2023-07-31T03:02:33;17.40;99.90
22682;DHT22;11508;50.856;4.380;2023-07-31T03:04:59;17.40;99.90
22682;DHT22;11508;50.856;4.380;2023-07-31T03:07:24;17.40;99.90
22682;DHT22;11508;50.856;4.380;2023-07-31T03:09:50;17.40;99.90
22682;DHT22;11508;50.856;4.380;2023-07-31T03:12:16;17.30;99.90
22682;DHT22;11508;50.856;4.380;2023-07-31T03:14:41;17.40;99.90
22682;DHT22;11508;50.856;4.380;2023-07-31T03:17:07;17.40;99.90
22682;DHT22;11508;50.856;4.380;2023-07-31T03:19:33;17.40;99.90
22682;DHT22;11508;50.856;4.380;2023-07-31T03:21:59;17.30;99.90
22682;DHT22;11508;50.856;4.380;2023-07-31T03:24:26;17.30;99.90
22682;DHT22;11508;50.856;4.380;2023-07-31T03:26:51;17.20;99.90
22682;DHT22;11508;50.856;4.380;2023-07-31T03:29:17;17.20;99.90
22682;DHT22;11508;50.856;4.380;2023-07-31T03:31:43;17.20;99.90
22682;DHT22;11508;50.856;4.380;2023-07-31T03:34:08;17.10;99.90
22682;DHT22;11508;50.856;4.380;2023-07-31T03:36:34;17.10;99.90
22682;DHT22;11508;50.856;4.380;2023-07-31T03:39:00;17.10;99.90
22682;DHT22;11508;50.856;4.380;2023-07-31T03:41:25;17.10;99.90
22682;DHT22;11508;50.856;4.380;2023-07-31T03:43:51;17.00;99.90
22682;DHT22;11508;50.856;4.380;2023-07-31T03:46:17;17.00;99.90
22682;DHT22;11508;50.856;4.380;2023-07-31T03:48:43;17.10;99.90
22682;DHT22;11508;50.856;4.380;2023-07-31T03:51:09;17.10;99.90
22682;DHT22;11508;50.856;4.380;2023-07-31T03:53:34;17.10;99.90
22682;DHT22;11508;50.856;4.380;2023-07-31T03:56:00;17.10;99.90
22682;DHT22;11508;50.856;4.380;2023-07-31T03:58:26;17.00;99.90
22682;DHT22;11508;50.856;4.380;2023-07-31T04:00:51;17.00;99.90
22682;DHT22;11508;50.856;4.380;2023-07-31T04:03:17;17.00;99.90
22682;DHT22;11508;50.856;4.380;2023-07-31T04:05:43;16.90;99.90
22682;DHT22;11508;50.856;4.380;2023-07-31T04:08:08;16.90;99.90
22682;DHT22;11508;50.856;4.380;2023-07-31T04:10:34;16.90;99.90
22682;DHT22;11508;50.856;4.380;2023-07-31T04:13:00;16.80;99.90
22682;DHT22;11508;50.856;4.380;2023-07-31T04:15:26;16.80;99.90
22682;DHT22;11508;50.856;4.380;2023-07-31T04:17:52;16.70;99.90
22682;DHT22;11508;50.856;4.380;2023-07-31T04:20:17;16.70;99.90
22682;DHT22;11508;50.856;4.380;2023-07-31T04:22:43;16.70;99.90
22682;DHT22;11508;50.856;4.380;2023-07-31T04:25:09;16.70;99.90
22682;DHT22;11508;50.856;4.380;2023-07-31T04:27:34;16.70;99.90
22682;DHT22;11508;50.856;4.380;2023-07-31T04:30:00;16.70;99.90
22682;DHT22;11508;50.856;4.380;2023-07-31T04:32:26;16.80;99.90
22682;DHT22;11508;50.856;4.380;2023-07-31T04:34:51;16.80;99.90
22682;DHT22;11508;50.856;4.380;2023-07-31T04:37:17;16.80;99.90
22682;DHT22;11508;50.856;4.380;2023-07-31T04:39:43;16.80;99.90
22682;DHT22;11508;50.856;4.380;2023-07-31T04:42:08;16.90;99.90
22682;DHT22;11508;50.856;4.380;2023-07-31T04:44:34;16.90;99.90
22682;DHT22;11508;50.856;4.380;2023-07-31T04:47:00;16.90;99.90
22682;DHT22;11508;50.856;4.380;2023-07-31T04:49:27;16.90;99.90
22682;DHT22;11508;50.856;4.380;2023-07-31T04:51:53;16.90;99.90
22682;DHT22;11508;50.856;4.380;2023-07-31T04:54:18;16.90;99.90
22682;DHT22;11508;50.856;4.380;2023-07-31T04:56:44;17.00;99.90
22682;DHT22;11508;50.856;4.380;2023-07-31T04:59:09;17.00;99.90
22682;DHT22;11508;50.856;4.380;2023-07-31T05:01:35;17.00;99.90
22682;DHT22;11508;50.856;4.380;2023-07-31T05:04:02;17.10;99.90
22682;DHT22;11508;50.856;4.380;2023-07-31T05:06:28;17.00;99.90
22682;DHT22;11508;50.856;4.380;2023-07-31T05:08:53;16.80;99.90
22682;DHT22;11508;50.856;4.380;2023-07-31T05:11:19;16.70;99.90
22682;DHT22;11508;50.856;4.380;2023-07-31T05:13:45;16.70;99.90
22682;DHT22;11508;50.856;4.380;2023-07-31T05:16:10;16.70;99.90
22682;DHT22;11508;50.856;4.380;2023-07-31T05:18:36;16.60;99.90
22682;DHT22;11508;50.856;4.380;2023-07-31T05:21:02;16.60;99.90
22682;DHT22;11508;50.856;4.380;2023-07-31T05:23:28;16.60;99.90
22682;DHT22;11508;50.856;4.380;2023-07-31T05:25:53;16.50;99.90
22682;DHT22;11508;50.856;4.380;2023-07-31T05:28:21;16.50;99.90
22682;DHT22;11508;50.856;4.380;2023-07-31T05:30:47;16.40;99.90
22682;DHT22;11508;50.856;4.380;2023-07-31T05:33:12;16.40;99.90
22682;DHT22;11508;50.856;4.380;2023-07-31T05:35:38;16.40;99.90
22682;DHT22;11508;50.856;4.380;2023-07-31T05:38:04;16.40;99.90
22682;DHT22;11508;50.856;4.380;2023-07-31T05:40:32;16.50;99.90
22682;DHT22;11508;50.856;4.380;2023-07-31T05:42:58;16.50;99.90
22682;DHT22;11508;50.856;4.380;2023-07-31T05:45:25;16.50;99.90
22682;DHT22;11508;50.856;4.380;2023-07-31T05:47:50;16.50;99.90
22682;DHT22;11508;50.856;4.380;2023-07-31T05:50:16;16.50;99.90
22682;DHT22;11508;50.856;4.380;2023-07-31T05:52:42;16.50;99.90
22682;DHT22;11508;50.856;4.380;2023-07-31T05:55:08;16.50;99.90
22682;DHT22;11508;50.856;4.380;2023-07-31T05:57:33;16.60;99.90
22682;DHT22;11508;50.856;4.380;2023-07-31T05:59:59;16.60;99.90
22682;DHT22;11508;50.856;4.380;2023-07-31T06:02:25;16.60;99.90
22682;DHT22;11508;50.856;4.380;2023-07-31T06:04:50;16.60;99.90
22682;DHT22;11508;50.856;4.380;2023-07-31T06:07:16;16.60;99.90
22682;DHT22;11508;50.856;4.380;2023-07-31T06:09:42;16.60;99.90
22682;DHT22;11508;50.856;4.380;2023-07-31T06:12:07;16.70;99.90
22682;DHT22;11508;50.856;4.380;2023-07-31T06:14:34;16.70;99.90
22682;DHT22;11508;50.856;4.380;2023-07-31T06:16:59;16.70;99.90
22682;DHT22;11508;50.856;4.380;2023-07-31T06:19:25;16.70;99.90
22682;DHT22;11508;50.856;4.380;2023-07-31T06:21:51;16.70;99.90
22682;DHT22;11508;50.856;4.380;2023-07-31T06:24:16;16.80;99.90
22682;DHT22;11508;50.856;4.380;2023-07-31T06:26:45;16.80;99.90
22682;DHT22;11508;50.856;4.380;2023-07-31T06:29:11;16.80;99.90
22682;DHT22;11508;50.856;4.380;2023-07-31T06:31:36;16.90;99.90
22682;DHT22;11508;50.856;4.380;2023-07-31T06:34:02;16.90;99.90
22682;DHT22;11508;50.856;4.380;2023-07-31T06:36:28;16.90;99.90
22682;DHT22;11508;50.856;4.380;2023-07-31T06:38:53;16.90;99.90
22682;DHT22;11508;50.856;4.380;2023-07-31T06:41:19;16.90;99.90
22682;DHT22;11508;50.856;4.380;2023-07-31T06:43:44;17.00;99.90
22682;DHT22;11508;50.856;4.380;2023-07-31T06:46:10;17.00;99.90
22682;DHT22;11508;50.856;4.380;2023-07-31T06:48:36;17.00;99.90
22682;DHT22;11508;50.856;4.380;2023-07-31T06:51:04;17.10;99.90
22682;DHT22;11508;50.856;4.380;2023-07-31T06:53:30;17.20;99.90
22682;DHT22;11508;50.856;4.380;2023-07-31T06:55:56;17.10;99.90
22682;DHT22;11508;50.856;4.380;2023-07-31T06:58:21;17.20;99.90
22682;DHT22;11508;50.856;4.380;2023-07-31T07:00:47;17.40;99.90
22682;DHT22;11508;50.856;4.380;2023-07-31T07:03:14;17.50;99.90
22682;DHT22;11508;50.856;4.380;2023-07-31T07:05:40;17.50;99.90
22682;DHT22;11508;50.856;4.380;2023-07-31T07:08:07;17.50;99.90
22682;DHT22;11508;50.856;4.380;2023-07-31T07:10:33;17.60;99.90
22682;DHT22;11508;50.856;4.380;2023-07-31T07:12:58;17.70;99.90
22682;DHT22;11508;50.856;4.380;2023-07-31T07:15:24;17.60;99.90
22682;DHT22;11508;50.856;4.380;2023-07-31T07:17:50;17.70;99.90
22682;DHT22;11508;50.856;4.380;2023-07-31T07:20:16;17.60;99.90
22682;DHT22;11508;50.856;4.380;2023-07-31T07:22:42;17.60;99.90
22682;DHT22;11508;50.856;4.380;2023-07-31T07:25:10;17.70;99.90
22682;DHT22;11508;50.856;4.380;2023-07-31T07:27:36;17.70;99.90
22682;DHT22;11508;50.856;4.380;2023-07-31T07:30:02;17.70;99.90
22682;DHT22;11508;50.856;4.380;2023-07-31T07:32:29;17.70;99.90
22682;DHT22;11508;50.856;4.380;2023-07-31T07:34:55;17.60;99.90
22682;DHT22;11508;50.856;4.380;2023-07-31T07:37:21;17.60;99.90
22682;DHT22;11508;50.856;4.380;2023-07-31T07:39:47;17.60;99.90
22682;DHT22;11508;50.856;4.380;2023-07-31T07:42:12;17.70;99.90
22682;DHT22;11508;50.856;4.380;2023-07-31T07:44:38;17.70;99.90
22682;DHT22;11508;50.856;4.380;2023-07-31T07:47:04;17.70;99.90
22682;DHT22;11508;50.856;4.380;2023-07-31T07:49:32;17.70;99.90
22682;DHT22;11508;50.856;4.380;2023-07-31T07:51:58;17.70;99.90
22682;DHT22;11508;50.856;4.380;2023-07-31T07:54:23;17.70;99.90
22682;DHT22;11508;50.856;4.380;2023-07-31T07:56:55;17.70;99.90
22682;DHT22;11508;50.856;4.380;2023-07-31T07:59:20;17.80;99.90
22682;DHT22;11508;50.856;4.380;2023-07-31T08:01:46;17.80;99.90
22682;DHT22;11508;50.856;4.380;2023-07-31T08:04:12;17.80;99.90
22682;DHT22;11508;50.856;4.380;2023-07-31T08:06:37;17.80;99.90
22682;DHT22;11508;50.856;4.380;2023-07-31T08:09:03;17.80;99.90
22682;DHT22;11508;50.856;4.380;2023-07-31T08:11:32;17.90;99.90
22682;DHT22;11508;50.856;4.380;2023-07-31T08:13:58;17.90;99.90
22682;DHT22;11508;50.856;4.380;2023-07-31T08:16:24;17.70;99.90
22682;DHT22;11508;50.856;4.380;2023-07-31T08:18:49;17.70;99.90
22682;DHT22;11508;50.856;4.380;2023-07-31T08:21:15;17.70;99.90
22682;DHT22;11508;50.856;4.380;2023-07-31T08:23:41;17.80;99.90
22682;DHT22;11508;50.856;4.380;2023-07-31T08:26:06;17.70;99.90
22682;DHT22;11508;50.856;4.380;2023-07-31T08:28:32;17.60;99.90
22682;DHT22;11508;50.856;4.380;2023-07-31T08:30:58;17.60;99.90
22682;DHT22;11508;50.856;4.380;2023-07-31T08:33:32;17.50;99.90
22682;DHT22;11508;50.856;4.380;2023-07-31T08:35:59;17.40;99.90
22682;DHT22;11508;50.856;4.380;2023-07-31T08:38:27;17.40;99.90
22682;DHT22;11508;50.856;4.380;2023-07-31T08:40:57;17.40;99.90
22682;DHT22;11508;50.856;4.380;2023-07-31T08:43:25;17.50;99.90
22682;DHT22;11508;50.856;4.380;2023-07-31T08:45:51;17.50;99.90
22682;DHT22;11508;50.856;4.380;2023-07-31T08:48:18;17.50;99.90
22682;DHT22;11508;50.856;4.380;2023-07-31T08:50:44;17.40;99.90
22682;DHT22;11508;50.856;4.380;2023-07-31T08:53:10;17.40;99.90
22682;DHT22;11508;50.856;4.380;2023-07-31T08:55:38;17.50;99.90
22682;DHT22;11508;50.856;4.380;2023-07-31T08:58:09;17.40;99.90
22682;DHT22;11508;50.856;4.380;2023-07-31T09:00:38;17.40;99.90
22682;DHT22;11508;50.856;4.380;2023-07-31T09:03:09;17.50;99.90
22682;DHT22;11508;50.856;4.380;2023-07-31T09:05:39;17.50;99.90
22682;DHT22;11508;50.856;4.380;2023-07-31T09:08:08;17.50;99.90
22682;DHT22;11508;50.856;4.380;2023-07-31T09:10:34;17.60;99.90
22682;DHT22;11508;50.856;4.380;2023-07-31T09:13:00;17.70;99.90
22682;DHT22;11508;50.856;4.380;2023-07-31T09:15:32;17.70;99.90
22682;DHT22;11508;50.856;4.380;2023-07-31T09:17:59;17.60;99.90
22682;DHT22;11508;50.856;4.380;2023-07-31T09:20:26;17.70;99.90
22682;DHT22;11508;50.856;4.380;2023-07-31T09:22:58;17.80;99.90
22682;DHT22;11508;50.856;4.380;2023-07-31T09:25:30;17.80;99.90
22682;DHT22;11508;50.856;4.380;2023-07-31T09:28:07;17.70;99.90
22682;DHT22;11508;50.856;4.380;2023-07-31T09:30:48;17.70;99.90
22682;DHT22;11508;50.856;4.380;2023-07-31T09:33:17;17.80;99.90
22682;DHT22;11508;50.856;4.380;2023-07-31T09:35:49;17.90;99.90
22682;DHT22;11508;50.856;4.380;2023-07-31T09:38:15;17.80;99.90
22682;DHT22;11508;50.856;4.380;2023-07-31T09:40:47;17.80;99.90
22682;DHT22;11508;50.856;4.380;2023-07-31T09:43:19;17.80;99.90
22682;DHT22;11508;50.856;4.380;2023-07-31T09:45:45;17.80;99.90
22682;DHT22;11508;50.856;4.380;2023-07-31T09:48:16;17.70;99.90
22682;DHT22;11508;50.856;4.380;2023-07-31T09:50:45;17.70;99.90
22682;DHT22;11508;50.856;4.380;2023-07-31T09:53:11;17.70;99.90
22682;DHT22;11508;50.856;4.380;2023-07-31T09:55:38;17.70;99.90
22682;DHT22;11508;50.856;4.380;2023-07-31T09:58:05;17.60;99.90
22682;DHT22;11508;50.856;4.380;2023-07-31T10:00:31;17.70;99.90
22682;DHT22;11508;50.856;4.380;2023-07-31T10:03:06;17.70;99.90
22682;DHT22;11508;50.856;4.380;2023-07-31T10:08:07;17.50;99.90
22682;DHT22;11508;50.856;4.380;2023-07-31T10:10:38;17.50;99.90
22682;DHT22;11508;50.856;4.380;2023-07-31T10:13:13;17.60;99.90
22682;DHT22;11508;50.856;4.380;2023-07-31T10:15:39;17.60;99.90
22682;DHT22;11508;50.856;4.380;2023-07-31T10:18:07;17.60;99.90
22682;DHT22;11508;50.856;4.380;2023-07-31T10:20:33;17.70;99.90
22682;DHT22;11508;50.856;4.380;2023-07-31T10:22:59;17.80;99.90
22682;DHT22;11508;50.856;4.380;2023-07-31T10:25:27;17.80;99.90
22682;DHT22;11508;50.856;4.380;2023-07-31T10:27:53;18.00;99.90
22682;DHT22;11508;50.856;4.380;2023-07-31T10:30:24;18.10;99.90
22682;DHT22;11508;50.856;4.380;2023-07-31T10:32:51;18.30;99.90
22682;DHT22;11508;50.856;4.380;2023-07-31T10:35:17;18.30;99.90
22682;DHT22;11508;50.856;4.380;2023-07-31T10:37:43;18.30;99.90
22682;DHT22;11508;50.856;4.380;2023-07-31T10:40:11;18.40;99.90
22682;DHT22;11508;50.856;4.380;2023-07-31T10:42:58;18.60;99.90
22682;DHT22;11508;50.856;4.380;2023-07-31T10:45:37;18.70;99.90
22682;DHT22;11508;50.856;4.380;2023-07-31T10:48:16;18.40;99.90
22682;DHT22;11508;50.856;4.380;2023-07-31T10:50:54;18.70;99.90
22682;DHT22;11508;50.856;4.380;2023-07-31T10:53:31;18.60;99.90
22682;DHT22;11508;50.856;4.380;2023-07-31T10:56:08;18.60;99.90
22682;DHT22;11508;50.856;4.380;2023-07-31T10:58:37;18.70;99.90
22682;DHT22;11508;50.856;4.380;2023-07-31T11:01:05;18.70;99.90
22682;DHT22;11508;50.856;4.380;2023-07-31T11:06:10;18.80;99.90
22682;DHT22;11508;50.856;4.380;2023-07-31T11:08:43;19.00;99.90
22682;DHT22;11508;50.856;4.380;2023-07-31T11:11:14;19.00;99.90
22682;DHT22;11508;50.856;4.380;2023-07-31T11:16:11;19.20;99.90
22682;DHT22;11508;50.856;4.380;2023-07-31T11:18:39;19.20;99.90
22682;DHT22;11508;50.856;4.380;2023-07-31T11:21:06;19.30;99.90
22682;DHT22;11508;50.856;4.380;2023-07-31T11:23:32;19.40;99.90
22682;DHT22;11508;50.856;4.380;2023-07-31T11:26:00;19.50;99.90
22682;DHT22;11508;50.856;4.380;2023-07-31T11:28:34;19.50;99.90
22682;DHT22;11508;50.856;4.380;2023-07-31T11:31:01;19.30;99.90
22682;DHT22;11508;50.856;4.380;2023-07-31T11:33:26;19.30;99.90
22682;DHT22;11508;50.856;4.380;2023-07-31T11:35:52;19.30;99.90
22682;DHT22;11508;50.856;4.380;2023-07-31T11:38:27;19.30;99.90
22682;DHT22;11508;50.856;4.380;2023-07-31T11:40:55;19.50;99.90
22682;DHT22;11508;50.856;4.380;2023-07-31T11:43:21;19.50;99.90
22682;DHT22;11508;50.856;4.380;2023-07-31T11:45:48;19.50;99.90
22682;DHT22;11508;50.856;4.380;2023-07-31T11:48:31;19.50;99.90
22682;DHT22;11508;50.856;4.380;2023-07-31T11:51:00;19.70;99.90
22682;DHT22;11508;50.856;4.380;2023-07-31T11:53:29;19.60;99.90
22682;DHT22;11508;50.856;4.380;2023-07-31T11:55:58;19.50;99.90
22682;DHT22;11508;50.856;4.380;2023-07-31T11:58:24;19.50;99.90
22682;DHT22;11508;50.856;4.380;2023-07-31T12:00:51;19.50;99.90
22682;DHT22;11508;50.856;4.380;2023-07-31T12:03:18;19.50;99.90
22682;DHT22;11508;50.856;4.380;2023-07-31T12:05:43;19.40;99.90
22682;DHT22;11508;50.856;4.380;2023-07-31T12:08:11;19.60;99.90
22682;DHT22;11508;50.856;4.380;2023-07-31T12:10:39;19.60;99.90
22682;DHT22;11508;50.856;4.380;2023-07-31T12:13:19;19.80;99.90
22682;DHT22;11508;50.856;4.380;2023-07-31T12:15:46;19.90;99.90
22682;DHT22;11508;50.856;4.380;2023-07-31T12:18:14;20.10;99.90
22682;DHT22;11508;50.856;4.380;2023-07-31T12:20:57;20.00;99.90
22682;DHT22;11508;50.856;4.380;2023-07-31T12:23:25;19.80;52.70
22682;DHT22;11508;50.856;4.380;2023-07-31T12:26:07;19.70;61.10
22682;DHT22;11508;50.856;4.380;2023-07-31T12:28:45;19.70;58.80
22682;DHT22;11508;50.856;4.380;2023-07-31T12:31:15;19.60;66.30
22682;DHT22;11508;50.856;4.380;2023-07-31T12:33:43;19.80;54.10
22682;DHT22;11508;50.856;4.380;2023-07-31T12:36:14;19.70;57.80
22682;DHT22;11508;50.856;4.380;2023-07-31T12:38:40;19.90;45.40
22682;DHT22;11508;50.856;4.380;2023-07-31T12:41:06;19.90;55.30
22682;DHT22;11508;50.856;4.380;2023-07-31T12:43:36;19.80;54.20
22682;DHT22;11508;50.856;4.380;2023-07-31T12:46:02;20.00;44.50
22682;DHT22;11508;50.856;4.380;2023-07-31T12:48:28;19.90;58.40
22682;DHT22;11508;50.856;4.380;2023-07-31T12:50:54;19.80;64.40
22682;DHT22;11508;50.856;4.380;2023-07-31T12:53:20;20.10;45.70
22682;DHT22;11508;50.856;4.380;2023-07-31T12:55:45;20.20;38.10
22682;DHT22;11508;50.856;4.380;2023-07-31T12:58:11;20.10;36.50
22682;DHT22;11508;50.856;4.380;2023-07-31T13:00:37;19.90;54.90
22682;DHT22;11508;50.856;4.380;2023-07-31T13:03:03;19.80;72.50
22682;DHT22;11508;50.856;4.380;2023-07-31T13:05:29;19.70;70.90
22682;DHT22;11508;50.856;4.380;2023-07-31T13:07:55;19.70;78.50
22682;DHT22;11508;50.856;4.380;2023-07-31T13:10:22;19.60;77.80
22682;DHT22;11508;50.856;4.380;2023-07-31T13:12:48;19.60;83.30
22682;DHT22;11508;50.856;4.380;2023-07-31T13:15:14;19.60;88.00
22682;DHT22;11508;50.856;4.380;2023-07-31T13:17:39;19.40;96.70
22682;DHT22;11508;50.856;4.380;2023-07-31T13:20:05;19.30;99.90
22682;DHT22;11508;50.856;4.380;2023-07-31T13:22:31;19.20;99.90
22682;DHT22;11508;50.856;4.380;2023-07-31T13:24:57;19.10;99.90
22682;DHT22;11508;50.856;4.380;2023-07-31T13:27:23;19.10;99.90
22682;DHT22;11508;50.856;4.380;2023-07-31T13:29:50;19.00;99.90
22682;DHT22;11508;50.856;4.380;2023-07-31T13:32:16;18.80;99.90
22682;DHT22;11508;50.856;4.380;2023-07-31T13:34:43;18.60;99.90
22682;DHT22;11508;50.856;4.380;2023-07-31T13:37:09;18.50;99.90
22682;DHT22;11508;50.856;4.380;2023-07-31T13:39:34;18.40;99.90
22682;DHT22;11508;50.856;4.380;2023-07-31T13:42:01;18.20;99.90
22682;DHT22;11508;50.856;4.380;2023-07-31T13:44:27;18.20;99.90
22682;DHT22;11508;50.856;4.380;2023-07-31T13:46:53;18.10;99.90
22682;DHT22;11508;50.856;4.380;2023-07-31T13:49:19;18.10;99.90
22682;DHT22;11508;50.856;4.380;2023-07-31T13:51:44;18.10;99.90
22682;DHT22;11508;50.856;4.380;2023-07-31T13:54:10;18.00;99.90
22682;DHT22;11508;50.856;4.380;2023-07-31T13:56:40;17.90;99.90
22682;DHT22;11508;50.856;4.380;2023-07-31T13:59:05;17.90;99.90
22682;DHT22;11508;50.856;4.380;2023-07-31T14:01:31;17.90;99.90
22682;DHT22;11508;50.856;4.380;2023-07-31T14:03:57;17.90;99.90
22682;DHT22;11508;50.856;4.380;2023-07-31T14:06:24;17.80;99.90
22682;DHT22;11508;50.856;4.380;2023-07-31T14:08:49;17.80;99.90
22682;DHT22;11508;50.856;4.380;2023-07-31T14:11:15;17.70;99.90
22682;DHT22;11508;50.856;4.380;2023-07-31T14:13:41;17.80;99.90
22682;DHT22;11508;50.856;4.380;2023-07-31T14:16:06;17.70;99.90
22682;DHT22;11508;50.856;4.380;2023-07-31T14:18:32;17.80;99.90
22682;DHT22;11508;50.856;4.380;2023-07-31T14:20:58;17.80;99.90
22682;DHT22;11508;50.856;4.380;2023-07-31T14:23:24;17.90;99.90
22682;DHT22;11508;50.856;4.380;2023-07-31T14:25:49;17.90;99.90
22682;DHT22;11508;50.856;4.380;2023-07-31T14:28:15;17.90;99.90
22682;DHT22;11508;50.856;4.380;2023-07-31T14:30:40;17.90;99.90
22682;DHT22;11508;50.856;4.380;2023-07-31T14:33:06;17.90;99.90
22682;DHT22;11508;50.856;4.380;2023-07-31T14:35:33;17.90;99.90
22682;DHT22;11508;50.856;4.380;2023-07-31T14:38:00;17.90;99.90
22682;DHT22;11508;50.856;4.380;2023-07-31T14:40:26;18.00;99.90
22682;DHT22;11508;50.856;4.380;2023-07-31T14:42:51;18.00;99.90
22682;DHT22;11508;50.856;4.380;2023-07-31T14:45:17;18.00;99.90
22682;DHT22;11508;50.856;4.380;2023-07-31T14:47:43;18.00;99.90
22682;DHT22;11508;50.856;4.380;2023-07-31T14:50:09;18.00;99.90
22682;DHT22;11508;50.856;4.380;2023-07-31T14:52:35;17.90;99.90
22682;DHT22;11508;50.856;4.380;2023-07-31T14:55:00;17.90;99.90
22682;DHT22;11508;50.856;4.380;2023-07-31T14:57:26;17.90;99.90
22682;DHT22;11508;50.856;4.380;2023-07-31T14:59:52;17.90;99.90
22682;DHT22;11508;50.856;4.380;2023-07-31T15:02:17;17.90;99.90
22682;DHT22;11508;50.856;4.380;2023-07-31T15:04:43;17.90;99.90
22682;DHT22;11508;50.856;4.380;2023-07-31T15:07:09;17.80;99.90
22682;DHT22;11508;50.856;4.380;2023-07-31T15:09:34;17.80;99.90
22682;DHT22;11508;50.856;4.380;2023-07-31T15:12:00;17.80;99.90
22682;DHT22;11508;50.856;4.380;2023-07-31T15:14:26;17.80;99.90
22682;DHT22;11508;50.856;4.380;2023-07-31T15:16:56;17.80;99.90
22682;DHT22;11508;50.856;4.380;2023-07-31T15:19:22;17.80;99.90
22682;DHT22;11508;50.856;4.380;2023-07-31T15:21:49;17.80;99.90
22682;DHT22;11508;50.856;4.380;2023-07-31T15:24:15;17.80;99.90
22682;DHT22;11508;50.856;4.380;2023-07-31T15:26:40;17.90;99.90
22682;DHT22;11508;50.856;4.380;2023-07-31T15:29:08;17.90;99.90
22682;DHT22;11508;50.856;4.380;2023-07-31T15:31:45;18.00;99.90
22682;DHT22;11508;50.856;4.380;2023-07-31T15:34:11;17.80;99.90
22682;DHT22;11508;50.856;4.380;2023-07-31T15:36:37;17.80;99.90
22682;DHT22;11508;50.856;4.380;2023-07-31T15:39:02;17.70;99.90
22682;DHT22;11508;50.856;4.380;2023-07-31T15:41:28;17.80;99.90
22682;DHT22;11508;50.856;4.380;2023-07-31T15:43:55;17.80;99.90
22682;DHT22;11508;50.856;4.380;2023-07-31T15:46:21;17.80;99.90